Terminal Aerodrome Forecast
Issued by NWS Bismarck, ND

Home | Current Version | Previous Version | Text Only | Print | Product List | Glossary Off
Versions: 1 2 3 4 5 6 7 8 9 10 11 12 13 14 15 16 17 18 19 20 21 22 23 24

000
FTUS43 KBIS 102338
TAFISN
TAF
KISN 102338Z 1100/1124 27009KT P6SM SCT200
     FM110200 28014KT P6SM FEW200 WS020/31045KT
     FM110500 29020G28KT P6SM BKN150 WS020/31050KT
     FM110800 31021G30KT P6SM OVC020
     FM111500 31013KT P6SM VCSH OVC010
     FM111800 31012KT P6SM OVC030=

USA.gov is the U.S. government's official web portal to all federal, state and local government web resources and services.